createdAt,value
2023-04-18T00:01:24.877Z,14.27
2023-04-18T00:03:52.029Z,13.38
2023-04-18T00:06:19.507Z,11.77
2023-04-18T00:08:46.666Z,11.73
2023-04-18T00:11:13.403Z,11.75
2023-04-18T00:13:40.780Z,12.25
2023-04-18T00:16:08.737Z,10.13
2023-04-18T00:18:36.906Z,11.80
2023-04-18T00:21:04.484Z,10.88
2023-04-18T00:23:31.231Z,10.98
2023-04-18T00:25:58.030Z,10.85
2023-04-18T00:28:24.922Z,9.25
2023-04-18T00:30:51.781Z,11.07
2023-04-18T00:33:18.775Z,10.82
2023-04-18T00:35:45.726Z,9.02
2023-04-18T00:38:12.426Z,10.38
2023-04-18T00:40:40.227Z,10.82
2023-04-18T00:43:12.610Z,11.07
2023-04-18T00:45:39.911Z,11.30
2023-04-18T00:48:07.246Z,11.13
2023-04-18T00:50:34.161Z,9.35
2023-04-18T00:53:01.053Z,10.63
2023-04-18T00:55:28.784Z,9.13
2023-04-18T00:57:55.923Z,10.55
2023-04-18T01:00:22.768Z,9.80
2023-04-18T01:02:53.071Z,10.52
2023-04-18T01:05:21.375Z,10.13
2023-04-18T01:07:48.626Z,10.57
2023-04-18T01:10:15.486Z,9.18
2023-04-18T01:12:42.403Z,9.27
2023-04-18T01:15:09.487Z,10.27
2023-04-18T01:17:36.285Z,9.07
2023-04-18T01:20:06.296Z,9.03
2023-04-18T01:22:33.842Z,9.82
2023-04-18T01:25:00.765Z,10.37
2023-04-18T01:27:27.548Z,9.15
2023-04-18T01:29:54.277Z,8.82
2023-04-18T01:32:22.042Z,9.93
2023-04-18T01:34:48.927Z,7.90
2023-04-18T01:37:15.619Z,8.13
2023-04-18T01:39:42.308Z,8.50
2023-04-18T01:42:09.078Z,8.73
2023-04-18T01:44:35.852Z,7.17
2023-04-18T01:47:02.786Z,8.30
2023-04-18T01:49:29.687Z,8.55
2023-04-18T01:51:56.366Z,7.38
2023-04-18T01:54:23.404Z,8.30
2023-04-18T01:56:50.138Z,7.77
2023-04-18T01:59:16.805Z,7.70
2023-04-18T02:01:43.538Z,7.82
2023-04-18T02:04:10.510Z,5.85
2023-04-18T02:06:37.324Z,7.75
2023-04-18T02:09:04.114Z,6.63
2023-04-18T02:11:30.893Z,5.85
2023-04-18T02:13:59.691Z,7.40
2023-04-18T02:16:26.623Z,6.45
2023-04-18T02:18:53.597Z,6.25
2023-04-18T02:21:21.799Z,7.07
2023-04-18T02:23:48.786Z,7.60
2023-04-18T02:26:15.737Z,6.70
2023-04-18T02:28:42.418Z,6.78
2023-04-18T02:31:14.576Z,5.95
2023-04-18T02:33:45.813Z,6.07
2023-04-18T02:36:13.075Z,7.53
2023-04-18T02:38:39.773Z,6.72
2023-04-18T02:41:06.661Z,7.22
2023-04-18T02:43:33.554Z,7.57
2023-04-18T02:46:00.341Z,6.27
2023-04-18T02:48:27.367Z,7.45
2023-04-18T02:50:54.120Z,7.10
2023-04-18T02:53:23.872Z,6.10
2023-04-18T02:55:50.656Z,6.70
2023-04-18T02:58:17.383Z,6.03
2023-04-18T03:00:44.067Z,6.22
2023-04-18T03:03:11.017Z,7.82
2023-04-18T03:05:39.547Z,7.35
2023-04-18T03:08:06.355Z,6.57
2023-04-18T03:10:33.207Z,6.80
2023-04-18T03:12:59.989Z,7.65
2023-04-18T03:15:26.891Z,7.30
2023-04-18T03:17:53.795Z,6.30
2023-04-18T03:20:20.688Z,7.80
2023-04-18T03:22:47.395Z,7.40
2023-04-18T03:25:14.362Z,5.60
2023-04-18T03:27:42.865Z,7.15
2023-04-18T03:30:10.640Z,5.60
2023-04-18T03:32:38.653Z,5.55
2023-04-18T03:35:05.890Z,7.43
2023-04-18T03:37:32.642Z,6.68
2023-04-18T03:39:59.472Z,7.15
2023-04-18T03:42:26.232Z,8.27
2023-04-18T03:44:53.019Z,7.63
2023-04-18T03:47:19.785Z,7.40
2023-04-18T03:49:46.608Z,8.13
2023-04-18T03:52:13.315Z,7.22
2023-04-18T03:54:40.062Z,8.00
2023-04-18T03:57:06.833Z,6.68
2023-04-18T03:59:33.554Z,6.20
2023-04-18T04:02:00.479Z,6.85
2023-04-18T04:04:27.842Z,7.28
2023-04-18T04:06:54.666Z,7.05
2023-04-18T04:09:21.492Z,8.35
2023-04-18T04:11:48.429Z,6.37
2023-04-18T04:14:15.476Z,8.40
2023-04-18T04:16:42.701Z,6.30
2023-04-18T04:19:09.634Z,9.05
2023-04-18T04:21:36.551Z,7.15
2023-04-18T04:24:03.301Z,7.90
2023-04-18T04:26:30.798Z,8.82
2023-04-18T04:28:57.731Z,7.38
2023-04-18T04:31:24.543Z,7.50
2023-04-18T04:33:51.360Z,7.15
2023-04-18T04:36:19.113Z,5.80
2023-04-18T04:38:46.099Z,6.38
2023-04-18T04:41:12.881Z,7.07
2023-04-18T04:43:41.367Z,6.90
2023-04-18T04:46:08.837Z,7.72
2023-04-18T04:48:35.624Z,8.27
2023-04-18T04:51:02.387Z,7.53
2023-04-18T04:53:32.736Z,7.18
2023-04-18T04:55:59.550Z,6.43
2023-04-18T04:58:26.701Z,6.25
2023-04-18T05:00:53.863Z,5.77
2023-04-18T05:03:21.051Z,6.75
2023-04-18T05:05:48.413Z,7.68
2023-04-18T05:08:15.310Z,8.60
2023-04-18T05:10:43.223Z,8.65
2023-04-18T05:13:10.071Z,9.07
2023-04-18T05:15:36.912Z,8.52
2023-04-18T05:18:03.805Z,9.02
2023-04-18T05:20:30.551Z,9.00
2023-04-18T05:22:57.255Z,9.70
2023-04-18T05:25:24.066Z,6.97
2023-04-18T05:27:51.187Z,7.22
2023-04-18T05:30:18.174Z,7.10
2023-04-18T05:32:44.949Z,8.57
2023-04-18T05:35:11.799Z,8.02
2023-04-18T05:37:38.610Z,8.47
2023-04-18T05:40:06.055Z,8.85
2023-04-18T05:42:33.349Z,7.72
2023-04-18T05:45:00.139Z,8.80
2023-04-18T05:47:28.650Z,7.97
2023-04-18T05:49:55.986Z,7.13
2023-04-18T05:52:22.810Z,8.48
2023-04-18T05:54:49.824Z,9.15
2023-04-18T05:57:16.519Z,7.88
2023-04-18T05:59:43.815Z,8.25
2023-04-18T06:02:13.555Z,6.43
2023-04-18T06:04:42.701Z,6.50
2023-04-18T06:07:10.203Z,9.55
2023-04-18T06:09:37.111Z,9.05
2023-04-18T06:12:04.167Z,6.63
2023-04-18T06:14:31.006Z,7.60
2023-04-18T06:16:57.973Z,8.95
2023-04-18T06:19:25.369Z,8.43
2023-04-18T06:21:53.462Z,7.28
2023-04-18T06:24:21.479Z,8.27
2023-04-18T06:26:51.257Z,7.37
2023-04-18T06:29:18.286Z,6.68
2023-04-18T06:31:46.754Z,7.00
2023-04-18T06:34:14.188Z,8.70
2023-04-18T06:36:41.131Z,7.63
2023-04-18T06:39:08.119Z,9.17
2023-04-18T06:41:34.954Z,8.68
2023-04-18T06:44:03.318Z,7.63
2023-04-18T06:46:31.893Z,8.30
2023-04-18T06:48:58.955Z,8.55
2023-04-18T06:51:25.967Z,6.83
2023-04-18T06:53:53.744Z,7.60
2023-04-18T06:56:21.255Z,8.60
2023-04-18T06:58:48.499Z,6.78
2023-04-18T07:01:16.077Z,7.03
2023-04-18T07:03:42.850Z,7.20
2023-04-18T07:06:10.927Z,8.30
2023-04-18T07:08:37.944Z,8.45
2023-04-18T07:11:05.532Z,6.18
2023-04-18T07:13:32.340Z,7.85
2023-04-18T07:15:59.459Z,7.67
2023-04-18T07:18:36.705Z,8.75
2023-04-18T07:21:07.893Z,6.95
2023-04-18T07:23:35.708Z,8.13
2023-04-18T07:26:03.096Z,7.35
2023-04-18T07:28:31.924Z,6.50
2023-04-18T07:30:59.414Z,6.10
2023-04-18T07:33:26.276Z,8.02
2023-04-18T07:35:53.239Z,7.85
2023-04-18T07:38:20.166Z,8.38
2023-04-18T07:40:46.880Z,6.60
2023-04-18T07:43:13.637Z,6.55
2023-04-18T07:45:43.221Z,7.97
2023-04-18T07:48:11.369Z,7.20
2023-04-18T07:50:38.276Z,7.45
2023-04-18T07:53:05.212Z,6.27
2023-04-18T07:55:32.072Z,6.68
2023-04-18T07:57:58.992Z,6.80
2023-04-18T08:00:26.380Z,5.47
2023-04-18T08:02:53.411Z,6.53
2023-04-18T08:05:20.637Z,6.93
2023-04-18T08:07:47.346Z,6.68
2023-04-18T08:10:14.209Z,5.72
2023-04-18T08:12:41.125Z,7.53
2023-04-18T08:15:08.709Z,6.38
2023-04-18T08:17:35.945Z,7.03
2023-04-18T08:20:07.287Z,6.65
2023-04-18T08:22:34.242Z,7.10
2023-04-18T08:25:05.329Z,5.55
2023-04-18T08:27:32.713Z,7.00
2023-04-18T08:29:59.845Z,6.73
2023-04-18T08:32:26.710Z,6.68
2023-04-18T08:34:53.414Z,5.25
2023-04-18T08:37:20.094Z,5.90
2023-04-18T08:39:46.810Z,6.68
2023-04-18T08:42:19.278Z,4.43
2023-04-18T08:44:47.317Z,6.68
2023-04-18T08:47:14.635Z,7.63
2023-04-18T08:49:42.583Z,6.47
2023-04-18T08:52:14.567Z,5.65
2023-04-18T08:54:42.837Z,6.20
2023-04-18T08:57:10.796Z,5.80
2023-04-18T08:59:37.509Z,6.45
2023-04-18T09:02:09.111Z,6.13
2023-04-18T09:04:44.736Z,6.63
2023-04-18T09:07:19.442Z,5.90
2023-04-18T09:09:54.429Z,6.07
2023-04-18T09:12:23.694Z,5.30
2023-04-18T09:14:52.361Z,5.97
2023-04-18T09:17:31.714Z,6.13
2023-04-18T09:20:00.151Z,6.30
2023-04-18T09:22:42.630Z,5.70
2023-04-18T09:25:09.728Z,6.50
2023-04-18T09:27:36.594Z,6.07
2023-04-18T09:30:03.705Z,5.63
2023-04-18T09:32:30.737Z,5.33
2023-04-18T09:35:04.440Z,5.78
2023-04-18T09:37:31.642Z,4.72
2023-04-18T09:39:58.483Z,5.57
2023-04-18T09:42:28.197Z,5.40
2023-04-18T09:45:07.194Z,4.60
2023-04-18T09:47:35.206Z,4.93
2023-04-18T09:50:07.383Z,5.78
2023-04-18T09:52:36.134Z,5.10
2023-04-18T09:55:04.991Z,4.78
2023-04-18T09:57:33.525Z,5.00
2023-04-18T10:00:13.454Z,5.18
2023-04-18T10:03:05.443Z,4.60
2023-04-18T10:05:34.789Z,4.05
2023-04-18T10:08:02.216Z,4.80
2023-04-18T10:10:29.381Z,3.83
2023-04-18T10:12:58.987Z,4.20
2023-04-18T10:15:27.866Z,4.30
2023-04-18T10:20:29.906Z,3.70
2023-04-18T10:22:58.123Z,4.27
2023-04-18T10:25:40.146Z,4.50
2023-04-18T10:28:09.883Z,4.40
2023-04-18T10:30:42.672Z,4.07
2023-04-18T10:36:05.149Z,3.57
2023-04-18T10:38:33.959Z,3.42
2023-04-18T10:41:24.764Z,3.70
2023-04-18T10:44:12.264Z,2.85
2023-04-18T10:46:48.407Z,3.30
2023-04-18T10:49:22.369Z,2.90
2023-04-18T10:52:02.287Z,3.25
2023-04-18T10:54:30.900Z,3.47
2023-04-18T10:56:59.659Z,4.25
2023-04-18T10:59:27.084Z,4.15
2023-04-18T11:01:57.302Z,4.40
2023-04-18T11:04:25.558Z,4.32
2023-04-18T11:06:57.113Z,4.00
2023-04-18T11:09:24.646Z,4.70
2023-04-18T11:12:06.208Z,4.78
2023-04-18T11:14:46.461Z,4.40
2023-04-18T11:17:27.350Z,5.18
2023-04-18T11:20:14.826Z,5.43
2023-04-18T11:22:51.580Z,4.78
2023-04-18T11:25:22.110Z,4.85
2023-04-18T11:27:55.654Z,5.10
2023-04-18T11:30:22.828Z,4.50
2023-04-18T11:32:49.720Z,5.47
2023-04-18T11:35:16.521Z,5.18
2023-04-18T11:37:45.873Z,4.85
2023-04-18T11:40:13.978Z,4.80
2023-04-18T11:42:41.556Z,5.60
2023-04-18T11:45:13.479Z,4.78
2023-04-18T11:47:42.842Z,4.90
2023-04-18T11:50:11.528Z,4.55
2023-04-18T11:52:40.948Z,4.10
2023-04-18T11:55:13.975Z,3.92
2023-04-18T11:57:41.867Z,3.70
2023-04-18T12:00:12.212Z,3.60
2023-04-18T12:02:43.964Z,3.70
2023-04-18T12:05:14.527Z,3.60
2023-04-18T12:07:44.383Z,3.65
2023-04-18T12:10:27.665Z,3.90
2023-04-18T12:12:56.868Z,4.45
2023-04-18T12:15:27.073Z,4.35
2023-04-18T12:17:59.492Z,4.87
2023-04-18T12:20:37.396Z,5.35
2023-04-18T12:23:05.050Z,4.93
2023-04-18T12:25:32.104Z,4.85
2023-04-18T12:28:12.836Z,5.28
2023-04-18T12:30:39.518Z,5.37
2023-04-18T12:33:06.711Z,5.65
2023-04-18T12:35:33.524Z,5.70
2023-04-18T12:38:02.382Z,5.97
2023-04-18T12:40:29.987Z,5.63
2023-04-18T12:42:56.898Z,6.03
2023-04-18T12:45:24.086Z,6.30
2023-04-18T12:47:52.317Z,6.28
2023-04-18T12:50:21.833Z,6.50
2023-04-18T12:52:49.104Z,6.03
2023-04-18T12:55:16.016Z,6.60
2023-04-18T12:57:43.663Z,6.60
2023-04-18T13:00:13.115Z,6.70
2023-04-18T13:02:43.063Z,6.15
2023-04-18T13:05:11.601Z,6.53
2023-04-18T13:07:40.490Z,6.57
2023-04-18T13:10:18.672Z,6.70
2023-04-18T13:12:46.861Z,6.90
2023-04-18T13:15:13.782Z,6.50
2023-04-18T13:17:40.649Z,6.97
2023-04-18T13:20:10.679Z,7.33
2023-04-18T13:22:38.530Z,7.10
2023-04-18T13:25:07.100Z,7.30
2023-04-18T13:27:34.289Z,7.32
2023-04-18T13:30:01.145Z,7.43
2023-04-18T13:32:28.117Z,7.80
2023-04-18T13:34:56.121Z,8.10
2023-04-18T13:37:23.666Z,7.82
2023-04-18T13:39:50.603Z,8.30
2023-04-18T13:42:19.282Z,8.45
2023-04-18T13:44:46.782Z,8.03
2023-04-18T13:47:13.569Z,8.23
2023-04-18T13:49:40.938Z,8.60
2023-04-18T13:52:07.841Z,7.63
2023-04-18T13:54:34.699Z,8.23
2023-04-18T13:57:11.392Z,8.37
2023-04-18T13:59:41.560Z,7.97
2023-04-18T14:02:10.964Z,8.38
2023-04-18T14:04:38.253Z,7.93
2023-04-18T14:07:06.354Z,8.65
2023-04-18T14:09:33.613Z,8.50
2023-04-18T14:12:00.438Z,8.20
2023-04-18T14:14:27.198Z,8.68
2023-04-18T14:16:54.105Z,8.88
2023-04-18T14:19:20.990Z,8.77
2023-04-18T14:21:48.628Z,10.97
2023-04-18T14:24:15.649Z,8.88
2023-04-18T14:26:42.433Z,8.75
2023-04-18T14:29:09.222Z,9.30
2023-04-18T14:31:36.616Z,8.77
2023-04-18T14:34:03.465Z,9.70
2023-04-18T14:36:30.930Z,9.90
2023-04-18T14:38:57.856Z,9.20
2023-04-18T14:41:24.594Z,9.55
2023-04-18T14:43:51.395Z,9.13
2023-04-18T14:46:18.246Z,9.37
2023-04-18T14:48:49.170Z,9.65
2023-04-18T14:51:16.716Z,9.60
2023-04-18T14:53:44.654Z,10.82
2023-04-18T14:56:11.764Z,10.07
2023-04-18T14:58:38.534Z,9.33
2023-04-18T15:01:05.620Z,10.00
2023-04-18T15:03:33.381Z,10.15
2023-04-18T15:06:00.423Z,9.05
2023-04-18T15:08:27.607Z,9.88
2023-04-18T15:10:55.423Z,9.60
2023-04-18T15:13:22.185Z,10.00
2023-04-18T15:15:53.265Z,9.50
2023-04-18T15:18:20.587Z,9.80
2023-04-18T15:20:47.567Z,9.80
2023-04-18T15:23:15.081Z,9.50
2023-04-18T15:25:42.679Z,9.70
2023-04-18T15:28:09.597Z,9.65
2023-04-18T15:30:36.516Z,9.68
2023-04-18T15:33:03.423Z,9.27
2023-04-18T15:35:30.264Z,9.03
2023-04-18T15:37:57.515Z,9.23
2023-04-18T15:40:24.481Z,8.45
2023-04-18T15:42:53.611Z,9.20
2023-04-18T15:45:21.886Z,9.18
2023-04-18T15:47:48.910Z,9.50
2023-04-18T15:50:16.565Z,9.60
2023-04-18T15:52:43.972Z,9.70
2023-04-18T15:55:13.350Z,9.73
2023-04-18T15:57:40.614Z,9.52
2023-04-18T16:00:16.060Z,9.17
2023-04-18T16:02:46.486Z,9.45
2023-04-18T16:05:13.943Z,9.18
2023-04-18T16:07:42.246Z,9.10
2023-04-18T16:10:10.891Z,9.32
2023-04-18T16:12:38.390Z,8.63
2023-04-18T16:15:09.329Z,8.80
2023-04-18T16:17:38.949Z,8.68
2023-04-18T16:20:08.339Z,8.80
2023-04-18T16:22:35.213Z,9.05
2023-04-18T16:25:02.179Z,8.80
2023-04-18T16:27:29.069Z,8.68
2023-04-18T16:29:56.036Z,8.35
2023-04-18T16:32:22.773Z,8.77
2023-04-18T16:34:49.875Z,8.90
2023-04-18T16:37:17.919Z,8.60
2023-04-18T16:39:44.665Z,8.45
2023-04-18T16:42:13.358Z,8.23
2023-04-18T16:44:41.710Z,8.32
2023-04-18T16:47:08.572Z,8.88
2023-04-18T16:49:35.667Z,8.27
2023-04-18T16:52:02.404Z,9.07
2023-04-18T16:54:29.577Z,8.15
2023-04-18T16:56:57.055Z,8.40
2023-04-18T16:59:23.931Z,8.02
2023-04-18T17:01:50.841Z,8.60
2023-04-18T17:04:17.839Z,8.38
2023-04-18T17:06:44.861Z,7.90
2023-04-18T17:09:13.696Z,8.15
2023-04-18T17:11:42.115Z,8.35
2023-04-18T17:14:09.328Z,8.10
2023-04-18T17:16:39.059Z,8.00
2023-04-18T17:19:06.006Z,8.48
2023-04-18T17:21:34.057Z,8.07
2023-04-18T17:24:03.836Z,8.45
2023-04-18T17:26:31.135Z,8.47
2023-04-18T17:28:58.217Z,8.35
2023-04-18T17:31:24.968Z,8.88
2023-04-18T17:33:51.790Z,8.43
2023-04-18T17:36:18.590Z,8.60
2023-04-18T17:38:48.955Z,8.07
2023-04-18T17:41:20.224Z,8.20
2023-04-18T17:43:48.571Z,8.35
2023-04-18T17:46:15.516Z,8.35
2023-04-18T17:48:42.455Z,8.63
2023-04-18T17:51:09.325Z,7.80
2023-04-18T17:53:36.038Z,7.85
2023-04-18T17:56:03.770Z,8.43
2023-04-18T17:58:30.609Z,8.80
2023-04-18T18:00:57.516Z,8.27
2023-04-18T18:03:24.701Z,8.33
2023-04-18T18:05:51.890Z,8.23
2023-04-18T18:08:18.597Z,8.20
2023-04-18T18:10:47.053Z,7.90
2023-04-18T18:13:13.975Z,8.10
2023-04-18T18:15:40.689Z,7.87
2023-04-18T18:18:07.534Z,7.90
2023-04-18T18:20:34.385Z,8.20
2023-04-18T18:23:01.780Z,8.10
2023-04-18T18:25:28.768Z,8.00
2023-04-18T18:27:55.651Z,8.20
2023-04-18T18:30:22.721Z,8.25
2023-04-18T18:32:49.644Z,8.40
2023-04-18T18:35:16.502Z,8.00
2023-04-18T18:37:43.228Z,8.40
2023-04-18T18:40:10.440Z,7.87
2023-04-18T18:42:37.529Z,7.85
2023-04-18T18:45:04.852Z,8.02
2023-04-18T18:47:31.793Z,7.82
2023-04-18T18:49:58.498Z,8.23
2023-04-18T18:52:27.980Z,8.50
2023-04-18T18:54:55.098Z,8.18
2023-04-18T18:57:22.034Z,8.52
2023-04-18T18:59:50.211Z,9.30
2023-04-18T19:02:17.429Z,8.00
2023-04-18T19:04:44.417Z,8.63
2023-04-18T19:07:11.236Z,8.10
2023-04-18T19:09:38.053Z,7.93
2023-04-18T19:12:05.648Z,8.10
2023-04-18T19:14:32.787Z,8.18
2023-04-18T19:16:59.586Z,11.57
2023-04-18T19:19:26.328Z,12.30
2023-04-18T19:21:53.126Z,10.52
2023-04-18T19:24:19.993Z,9.88
2023-04-18T19:26:46.760Z,10.10
2023-04-18T19:29:14.585Z,9.23
2023-04-18T19:31:43.770Z,9.68
2023-04-18T19:34:11.973Z,9.30
2023-04-18T19:36:38.974Z,9.30
2023-04-18T19:39:05.828Z,9.90
2023-04-18T19:41:32.619Z,10.13
2023-04-18T19:43:59.387Z,10.27
2023-04-18T19:46:26.320Z,10.00
2023-04-18T19:48:53.086Z,9.52
2023-04-18T19:51:19.807Z,9.10
2023-04-18T19:53:46.549Z,8.60
2023-04-18T19:56:14.896Z,9.05
2023-04-18T19:58:46.658Z,8.73
2023-04-18T20:01:18.887Z,8.63
2023-04-18T20:03:47.053Z,8.80
2023-04-18T20:06:14.300Z,8.30
2023-04-18T20:08:41.748Z,8.77
2023-04-18T20:11:10.466Z,9.20
2023-04-18T20:13:37.656Z,9.18
2023-04-18T20:16:05.397Z,9.38
2023-04-18T20:18:33.983Z,8.83
2023-04-18T20:21:00.698Z,9.88
2023-04-18T20:23:27.403Z,10.70
2023-04-18T20:25:54.203Z,9.05
2023-04-18T20:28:20.992Z,9.60
2023-04-18T20:30:48.125Z,9.30
2023-04-18T20:33:14.918Z,9.10
2023-04-18T20:35:41.685Z,8.93
2023-04-18T20:38:08.953Z,9.35
2023-04-18T20:40:38.746Z,9.07
2023-04-18T20:43:08.076Z,9.17
2023-04-18T20:45:37.567Z,8.90
2023-04-18T20:48:04.627Z,8.40
2023-04-18T20:50:31.514Z,8.60
2023-04-18T20:53:00.424Z,8.52
2023-04-18T20:55:27.272Z,8.13
2023-04-18T20:57:54.158Z,7.82
2023-04-18T21:00:20.894Z,8.38
2023-04-18T21:02:47.786Z,7.93
2023-04-18T21:05:14.625Z,7.53
2023-04-18T21:07:41.360Z,7.00
2023-04-18T21:10:08.423Z,6.25
2023-04-18T21:12:35.184Z,7.18
2023-04-18T21:15:02.208Z,7.10
2023-04-18T21:17:29.055Z,6.90
2023-04-18T21:19:55.832Z,7.00
2023-04-18T21:22:22.667Z,7.05
2023-04-18T21:24:49.463Z,7.05
2023-04-18T21:27:16.309Z,6.75
2023-04-18T21:29:43.090Z,6.97
2023-04-18T21:32:09.882Z,6.77
2023-04-18T21:34:36.806Z,6.53
2023-04-18T21:37:03.852Z,7.07
2023-04-18T21:39:31.240Z,7.13
2023-04-18T21:41:57.929Z,6.75
2023-04-18T21:44:24.850Z,6.33
2023-04-18T21:46:51.780Z,6.55
2023-04-18T21:49:18.584Z,6.60
2023-04-18T21:51:45.424Z,6.78
2023-04-18T21:54:12.424Z,6.57
2023-04-18T21:56:39.395Z,6.40
2023-04-18T21:59:06.069Z,6.45
2023-04-18T22:01:35.939Z,6.25
2023-04-18T22:04:02.914Z,6.45
2023-04-18T22:06:30.951Z,6.50
2023-04-18T22:08:58.251Z,6.27
2023-04-18T22:11:25.208Z,6.10
2023-04-18T22:13:54.214Z,5.72
2023-04-18T22:16:22.154Z,5.78
2023-04-18T22:18:49.340Z,6.05
2023-04-18T22:21:16.369Z,6.40
2023-04-18T22:23:43.132Z,5.82
2023-04-18T22:26:09.927Z,6.47
2023-04-18T22:28:37.074Z,5.95
2023-04-18T22:31:03.833Z,5.80
2023-04-18T22:33:30.698Z,6.03
2023-04-18T22:35:57.456Z,6.00
2023-04-18T22:38:25.178Z,5.95
2023-04-18T22:40:52.008Z,6.07
2023-04-18T22:43:23.748Z,5.93
2023-04-18T22:45:51.517Z,6.43
2023-04-18T22:48:18.481Z,6.47
2023-04-18T22:50:46.224Z,6.43
2023-04-18T22:53:15.246Z,6.03
2023-04-18T22:55:43.855Z,6.32
2023-04-18T22:58:11.714Z,6.17
2023-04-18T23:00:38.519Z,6.25
2023-04-18T23:03:05.600Z,6.63
2023-04-18T23:05:33.314Z,6.60
2023-04-18T23:08:00.600Z,6.20
2023-04-18T23:10:28.066Z,6.33
2023-04-18T23:12:54.935Z,6.50
2023-04-18T23:15:22.867Z,6.55
2023-04-18T23:17:54.788Z,6.43
2023-04-18T23:20:23.802Z,6.38
2023-04-18T23:22:51.698Z,6.23
2023-04-18T23:25:19.656Z,6.22
2023-04-18T23:27:46.946Z,6.72
2023-04-18T23:30:13.875Z,6.40
2023-04-18T23:32:40.693Z,6.47
2023-04-18T23:35:07.842Z,6.10
2023-04-18T23:37:34.535Z,6.65
2023-04-18T23:40:01.346Z,6.38
2023-04-18T23:42:28.105Z,7.10
2023-04-18T23:44:54.968Z,6.90
2023-04-18T23:47:21.988Z,6.43
2023-04-18T23:49:48.773Z,6.72
2023-04-18T23:52:15.652Z,7.15
2023-04-18T23:54:42.404Z,7.00
2023-04-18T23:57:09.119Z,6.57
2023-04-18T23:59:35.790Z,6.73
